sensor_id;sensor_type;location;lat;lon;timestamp;P1;durP1;ratioP1;P2;durP2;ratioP2
30571;SDS011;17348;50.948;10.696;2023-08-12T00:01:40;3.65;;;2.65;;
30571;SDS011;17348;50.948;10.696;2023-08-12T00:07:45;4.93;;;3.22;;
30571;SDS011;17348;50.948;10.696;2023-08-12T00:11:06;9.02;;;2.90;;
30571;SDS011;17348;50.948;10.696;2023-08-12T00:14:20;9.20;;;3.08;;
30571;SDS011;17348;50.948;10.696;2023-08-12T00:17:35;8.52;;;3.35;;
30571;SDS011;17348;50.948;10.696;2023-08-12T00:20:38;7.00;;;2.95;;
30571;SDS011;17348;50.948;10.696;2023-08-12T00:27:11;7.25;;;3.05;;
30571;SDS011;17348;50.948;10.696;2023-08-12T00:30:14;6.38;;;3.08;;
30571;SDS011;17348;50.948;10.696;2023-08-12T00:33:17;4.53;;;2.65;;
30571;SDS011;17348;50.948;10.696;2023-08-12T00:36:19;4.30;;;2.72;;
30571;SDS011;17348;50.948;10.696;2023-08-12T00:39:35;3.95;;;2.90;;
30571;SDS011;17348;50.948;10.696;2023-08-12T00:42:46;10.02;;;3.60;;
30571;SDS011;17348;50.948;10.696;2023-08-12T00:45:49;4.97;;;2.90;;
30571;SDS011;17348;50.948;10.696;2023-08-12T00:48:51;6.15;;;2.75;;
30571;SDS011;17348;50.948;10.696;2023-08-12T00:51:54;4.25;;;2.65;;
30571;SDS011;17348;50.948;10.696;2023-08-12T00:54:58;8.50;;;2.85;;
30571;SDS011;17348;50.948;10.696;2023-08-12T00:58:00;4.70;;;2.83;;
30571;SDS011;17348;50.948;10.696;2023-08-12T01:01:04;5.88;;;2.90;;
30571;SDS011;17348;50.948;10.696;2023-08-12T01:04:06;5.32;;;3.42;;
30571;SDS011;17348;50.948;10.696;2023-08-12T01:07:09;7.88;;;3.63;;
30571;SDS011;17348;50.948;10.696;2023-08-12T01:10:29;3.22;;;2.60;;
30571;SDS011;17348;50.948;10.696;2023-08-12T01:13:37;5.68;;;2.75;;
30571;SDS011;17348;50.948;10.696;2023-08-12T01:16:46;4.38;;;2.60;;
30571;SDS011;17348;50.948;10.696;2023-08-12T01:19:51;6.30;;;3.33;;
30571;SDS011;17348;50.948;10.696;2023-08-12T01:23:11;5.90;;;3.03;;
30571;SDS011;17348;50.948;10.696;2023-08-12T01:29:53;4.90;;;3.17;;
30571;SDS011;17348;50.948;10.696;2023-08-12T01:32:56;6.72;;;3.25;;
30571;SDS011;17348;50.948;10.696;2023-08-12T01:36:06;7.10;;;3.33;;
30571;SDS011;17348;50.948;10.696;2023-08-12T01:39:15;6.78;;;3.13;;
30571;SDS011;17348;50.948;10.696;2023-08-12T01:42:19;4.18;;;2.85;;
30571;SDS011;17348;50.948;10.696;2023-08-12T01:45:23;4.70;;;3.00;;
30571;SDS011;17348;50.948;10.696;2023-08-12T01:48:25;3.75;;;2.80;;
30571;SDS011;17348;50.948;10.696;2023-08-12T01:51:30;5.93;;;2.72;;
30571;SDS011;17348;50.948;10.696;2023-08-12T01:54:34;7.05;;;2.50;;
30571;SDS011;17348;50.948;10.696;2023-08-12T01:57:36;4.70;;;2.80;;
30571;SDS011;17348;50.948;10.696;2023-08-12T02:00:39;5.85;;;2.83;;
30571;SDS011;17348;50.948;10.696;2023-08-12T02:03:41;4.30;;;2.85;;
30571;SDS011;17348;50.948;10.696;2023-08-12T02:06:43;6.22;;;2.80;;
30571;SDS011;17348;50.948;10.696;2023-08-12T02:09:47;4.07;;;2.63;;
30571;SDS011;17348;50.948;10.696;2023-08-12T02:12:50;3.78;;;2.45;;
30571;SDS011;17348;50.948;10.696;2023-08-12T02:15:52;4.28;;;2.72;;
30571;SDS011;17348;50.948;10.696;2023-08-12T02:18:54;8.00;;;2.83;;
30571;SDS011;17348;50.948;10.696;2023-08-12T02:21:57;8.70;;;2.90;;
30571;SDS011;17348;50.948;10.696;2023-08-12T02:25:00;8.40;;;2.70;;
30571;SDS011;17348;50.948;10.696;2023-08-12T02:28:03;4.78;;;2.80;;
30571;SDS011;17348;50.948;10.696;2023-08-12T02:31:05;7.40;;;2.90;;
30571;SDS011;17348;50.948;10.696;2023-08-12T02:34:08;5.25;;;2.97;;
30571;SDS011;17348;50.948;10.696;2023-08-12T02:40:51;12.85;;;4.35;;
30571;SDS011;17348;50.948;10.696;2023-08-12T02:47:30;6.82;;;3.55;;
30571;SDS011;17348;50.948;10.696;2023-08-12T02:50:32;7.97;;;3.08;;
30571;SDS011;17348;50.948;10.696;2023-08-12T02:57:02;6.80;;;3.53;;
30571;SDS011;17348;50.948;10.696;2023-08-12T03:00:06;8.30;;;3.70;;
30571;SDS011;17348;50.948;10.696;2023-08-12T03:03:16;4.47;;;3.33;;
30571;SDS011;17348;50.948;10.696;2023-08-12T03:06:27;6.40;;;3.47;;
30571;SDS011;17348;50.948;10.696;2023-08-12T03:09:31;4.97;;;3.08;;
30571;SDS011;17348;50.948;10.696;2023-08-12T03:12:48;6.72;;;3.10;;
30571;SDS011;17348;50.948;10.696;2023-08-12T03:15:50;5.43;;;3.10;;
30571;SDS011;17348;50.948;10.696;2023-08-12T03:18:53;7.90;;;3.35;;
30571;SDS011;17348;50.948;10.696;2023-08-12T03:21:55;5.57;;;3.25;;
30571;SDS011;17348;50.948;10.696;2023-08-12T03:24:57;9.68;;;3.88;;
30571;SDS011;17348;50.948;10.696;2023-08-12T03:28:01;6.55;;;3.70;;
30571;SDS011;17348;50.948;10.696;2023-08-12T03:31:04;6.30;;;3.72;;
30571;SDS011;17348;50.948;10.696;2023-08-12T03:34:07;6.28;;;3.30;;
30571;SDS011;17348;50.948;10.696;2023-08-12T03:37:10;4.70;;;3.05;;
30571;SDS011;17348;50.948;10.696;2023-08-12T03:40:27;5.55;;;3.42;;
30571;SDS011;17348;50.948;10.696;2023-08-12T03:47:04;4.25;;;3.05;;
30571;SDS011;17348;50.948;10.696;2023-08-12T03:50:07;6.07;;;3.40;;
30571;SDS011;17348;50.948;10.696;2023-08-12T03:53:09;5.95;;;3.15;;
30571;SDS011;17348;50.948;10.696;2023-08-12T03:56:13;4.90;;;3.08;;
30571;SDS011;17348;50.948;10.696;2023-08-12T03:59:18;6.38;;;3.40;;
30571;SDS011;17348;50.948;10.696;2023-08-12T04:02:21;6.93;;;3.60;;
30571;SDS011;17348;50.948;10.696;2023-08-12T04:05:23;7.35;;;4.05;;
30571;SDS011;17348;50.948;10.696;2023-08-12T04:08:30;8.60;;;4.00;;
30571;SDS011;17348;50.948;10.696;2023-08-12T04:11:34;6.00;;;3.22;;
30571;SDS011;17348;50.948;10.696;2023-08-12T04:14:37;5.07;;;3.50;;
30571;SDS011;17348;50.948;10.696;2023-08-12T04:17:41;5.57;;;3.40;;
30571;SDS011;17348;50.948;10.696;2023-08-12T04:20:44;5.15;;;3.60;;
30571;SDS011;17348;50.948;10.696;2023-08-12T04:23:47;14.65;;;3.90;;
30571;SDS011;17348;50.948;10.696;2023-08-12T04:26:49;11.93;;;4.70;;
30571;SDS011;17348;50.948;10.696;2023-08-12T04:29:53;10.95;;;4.45;;
30571;SDS011;17348;50.948;10.696;2023-08-12T04:32:55;9.02;;;4.50;;
30571;SDS011;17348;50.948;10.696;2023-08-12T04:35:58;8.13;;;3.92;;
30571;SDS011;17348;50.948;10.696;2023-08-12T04:39:00;5.65;;;3.90;;
30571;SDS011;17348;50.948;10.696;2023-08-12T04:42:03;6.80;;;3.45;;
30571;SDS011;17348;50.948;10.696;2023-08-12T04:45:07;7.43;;;3.80;;
30571;SDS011;17348;50.948;10.696;2023-08-12T04:55:14;7.22;;;3.65;;
30571;SDS011;17348;50.948;10.696;2023-08-12T04:58:29;10.40;;;3.78;;
30571;SDS011;17348;50.948;10.696;2023-08-12T05:01:33;8.07;;;3.70;;
30571;SDS011;17348;50.948;10.696;2023-08-12T05:04:36;8.25;;;3.58;;
30571;SDS011;17348;50.948;10.696;2023-08-12T05:07:39;6.75;;;3.40;;
30571;SDS011;17348;50.948;10.696;2023-08-12T05:10:41;8.52;;;3.60;;
30571;SDS011;17348;50.948;10.696;2023-08-12T05:13:43;7.20;;;4.10;;
30571;SDS011;17348;50.948;10.696;2023-08-12T05:16:47;11.73;;;4.10;;
30571;SDS011;17348;50.948;10.696;2023-08-12T05:19:49;11.85;;;4.28;;
30571;SDS011;17348;50.948;10.696;2023-08-12T05:23:10;7.97;;;3.85;;
30571;SDS011;17348;50.948;10.696;2023-08-12T05:26:12;6.55;;;3.80;;
30571;SDS011;17348;50.948;10.696;2023-08-12T05:29:15;8.43;;;3.80;;
30571;SDS011;17348;50.948;10.696;2023-08-12T05:32:19;8.60;;;4.35;;
30571;SDS011;17348;50.948;10.696;2023-08-12T05:35:39;13.30;;;4.55;;
30571;SDS011;17348;50.948;10.696;2023-08-12T05:38:42;10.30;;;5.45;;
30571;SDS011;17348;50.948;10.696;2023-08-12T05:41:44;8.93;;;4.40;;
30571;SDS011;17348;50.948;10.696;2023-08-12T05:44:47;10.50;;;4.90;;
30571;SDS011;17348;50.948;10.696;2023-08-12T05:47:50;19.10;;;5.30;;
30571;SDS011;17348;50.948;10.696;2023-08-12T05:50:53;9.93;;;5.40;;
30571;SDS011;17348;50.948;10.696;2023-08-12T05:53:55;12.65;;;6.03;;
30571;SDS011;17348;50.948;10.696;2023-08-12T05:56:58;14.73;;;5.82;;
30571;SDS011;17348;50.948;10.696;2023-08-12T06:00:00;12.45;;;4.70;;
30571;SDS011;17348;50.948;10.696;2023-08-12T06:03:04;8.70;;;4.65;;
30571;SDS011;17348;50.948;10.696;2023-08-12T06:06:06;10.82;;;5.40;;
30571;SDS011;17348;50.948;10.696;2023-08-12T06:09:08;8.88;;;5.25;;
30571;SDS011;17348;50.948;10.696;2023-08-12T06:12:11;17.77;;;5.65;;
30571;SDS011;17348;50.948;10.696;2023-08-12T06:15:13;12.70;;;5.65;;
30571;SDS011;17348;50.948;10.696;2023-08-12T06:18:17;9.15;;;5.13;;
30571;SDS011;17348;50.948;10.696;2023-08-12T06:21:19;9.45;;;5.95;;
30571;SDS011;17348;50.948;10.696;2023-08-12T06:24:22;10.60;;;5.30;;
30571;SDS011;17348;50.948;10.696;2023-08-12T06:27:24;10.57;;;6.13;;
30571;SDS011;17348;50.948;10.696;2023-08-12T06:30:26;9.23;;;5.60;;
30571;SDS011;17348;50.948;10.696;2023-08-12T06:33:30;10.45;;;5.93;;
30571;SDS011;17348;50.948;10.696;2023-08-12T06:36:32;11.77;;;5.20;;
30571;SDS011;17348;50.948;10.696;2023-08-12T06:39:35;7.25;;;4.90;;
30571;SDS011;17348;50.948;10.696;2023-08-12T06:42:37;6.95;;;4.45;;
30571;SDS011;17348;50.948;10.696;2023-08-12T06:45:40;9.13;;;5.10;;
30571;SDS011;17348;50.948;10.696;2023-08-12T06:48:43;11.30;;;4.85;;
30571;SDS011;17348;50.948;10.696;2023-08-12T06:51:45;5.88;;;4.22;;
30571;SDS011;17348;50.948;10.696;2023-08-12T06:54:48;8.13;;;4.60;;
30571;SDS011;17348;50.948;10.696;2023-08-12T06:57:50;6.07;;;3.80;;
30571;SDS011;17348;50.948;10.696;2023-08-12T07:00:53;6.95;;;4.68;;
30571;SDS011;17348;50.948;10.696;2023-08-12T07:03:57;15.20;;;4.97;;
30571;SDS011;17348;50.948;10.696;2023-08-12T07:06:59;6.55;;;4.47;;
30571;SDS011;17348;50.948;10.696;2023-08-12T07:10:02;6.28;;;4.18;;
30571;SDS011;17348;50.948;10.696;2023-08-12T07:13:05;5.88;;;4.30;;
30571;SDS011;17348;50.948;10.696;2023-08-12T07:16:07;5.00;;;3.90;;
30571;SDS011;17348;50.948;10.696;2023-08-12T07:19:11;12.48;;;4.40;;
30571;SDS011;17348;50.948;10.696;2023-08-12T07:22:13;8.63;;;4.45;;
30571;SDS011;17348;50.948;10.696;2023-08-12T07:25:19;5.57;;;3.67;;
30571;SDS011;17348;50.948;10.696;2023-08-12T07:28:21;5.68;;;4.07;;
30571;SDS011;17348;50.948;10.696;2023-08-12T07:31:23;5.55;;;3.75;;
30571;SDS011;17348;50.948;10.696;2023-08-12T07:34:27;4.95;;;2.95;;
30571;SDS011;17348;50.948;10.696;2023-08-12T07:37:29;11.63;;;3.70;;
30571;SDS011;17348;50.948;10.696;2023-08-12T07:40:31;4.82;;;3.45;;
30571;SDS011;17348;50.948;10.696;2023-08-12T07:43:34;10.00;;;4.43;;
30571;SDS011;17348;50.948;10.696;2023-08-12T07:46:36;17.92;;;4.68;;
30571;SDS011;17348;50.948;10.696;2023-08-12T07:49:40;9.07;;;4.18;;
30571;SDS011;17348;50.948;10.696;2023-08-12T07:52:42;9.00;;;4.22;;
30571;SDS011;17348;50.948;10.696;2023-08-12T07:55:45;10.32;;;4.60;;
30571;SDS011;17348;50.948;10.696;2023-08-12T07:58:47;5.88;;;4.13;;
30571;SDS011;17348;50.948;10.696;2023-08-12T08:01:49;6.95;;;4.50;;
30571;SDS011;17348;50.948;10.696;2023-08-12T08:04:53;5.93;;;3.47;;
30571;SDS011;17348;50.948;10.696;2023-08-12T08:07:55;8.13;;;3.85;;
30571;SDS011;17348;50.948;10.696;2023-08-12T08:10:58;14.68;;;4.60;;
30571;SDS011;17348;50.948;10.696;2023-08-12T08:14:00;7.80;;;3.83;;
30571;SDS011;17348;50.948;10.696;2023-08-12T08:17:03;6.13;;;4.22;;
30571;SDS011;17348;50.948;10.696;2023-08-12T08:20:07;5.43;;;3.47;;
30571;SDS011;17348;50.948;10.696;2023-08-12T08:23:11;8.07;;;3.65;;
30571;SDS011;17348;50.948;10.696;2023-08-12T08:26:13;7.13;;;3.88;;
30571;SDS011;17348;50.948;10.696;2023-08-12T08:29:16;8.88;;;4.30;;
30571;SDS011;17348;50.948;10.696;2023-08-12T08:32:18;8.80;;;3.95;;
30571;SDS011;17348;50.948;10.696;2023-08-12T08:35:22;5.63;;;3.78;;
30571;SDS011;17348;50.948;10.696;2023-08-12T08:38:25;10.55;;;4.43;;
30571;SDS011;17348;50.948;10.696;2023-08-12T08:41:27;6.35;;;3.92;;
30571;SDS011;17348;50.948;10.696;2023-08-12T08:44:33;10.25;;;3.88;;
30571;SDS011;17348;50.948;10.696;2023-08-12T08:47:36;5.97;;;4.13;;
30571;SDS011;17348;50.948;10.696;2023-08-12T08:50:39;7.10;;;3.63;;
30571;SDS011;17348;50.948;10.696;2023-08-12T08:53:42;6.32;;;3.40;;
30571;SDS011;17348;50.948;10.696;2023-08-12T08:56:45;5.30;;;2.85;;
30571;SDS011;17348;50.948;10.696;2023-08-12T08:59:49;5.80;;;3.15;;
30571;SDS011;17348;50.948;10.696;2023-08-12T09:02:52;14.50;;;3.00;;
30571;SDS011;17348;50.948;10.696;2023-08-12T09:05:58;5.20;;;3.05;;
30571;SDS011;17348;50.948;10.696;2023-08-12T09:09:01;6.60;;;3.22;;
30571;SDS011;17348;50.948;10.696;2023-08-12T09:12:06;6.70;;;3.63;;
30571;SDS011;17348;50.948;10.696;2023-08-12T09:15:09;4.50;;;3.13;;
30571;SDS011;17348;50.948;10.696;2023-08-12T09:18:12;4.82;;;3.20;;
30571;SDS011;17348;50.948;10.696;2023-08-12T09:21:16;5.03;;;2.67;;
30571;SDS011;17348;50.948;10.696;2023-08-12T09:24:18;9.40;;;2.45;;
30571;SDS011;17348;50.948;10.696;2023-08-12T09:27:25;4.05;;;2.92;;
30571;SDS011;17348;50.948;10.696;2023-08-12T09:30:29;3.85;;;2.67;;
30571;SDS011;17348;50.948;10.696;2023-08-12T09:33:32;4.63;;;2.40;;
30571;SDS011;17348;50.948;10.696;2023-08-12T09:36:41;5.18;;;2.50;;
30571;SDS011;17348;50.948;10.696;2023-08-12T09:39:43;6.97;;;3.10;;
30571;SDS011;17348;50.948;10.696;2023-08-12T09:42:46;3.95;;;2.30;;
30571;SDS011;17348;50.948;10.696;2023-08-12T09:45:49;6.20;;;2.72;;
30571;SDS011;17348;50.948;10.696;2023-08-12T09:48:52;4.55;;;2.90;;
30571;SDS011;17348;50.948;10.696;2023-08-12T09:51:56;3.78;;;2.67;;
30571;SDS011;17348;50.948;10.696;2023-08-12T09:54:58;5.68;;;2.88;;
30571;SDS011;17348;50.948;10.696;2023-08-12T09:58:06;4.07;;;3.22;;
30571;SDS011;17348;50.948;10.696;2023-08-12T10:01:11;3.85;;;2.80;;
30571;SDS011;17348;50.948;10.696;2023-08-12T10:04:14;3.72;;;2.55;;
30571;SDS011;17348;50.948;10.696;2023-08-12T10:07:20;4.10;;;2.30;;
30571;SDS011;17348;50.948;10.696;2023-08-12T10:10:24;5.13;;;2.60;;
30571;SDS011;17348;50.948;10.696;2023-08-12T10:13:27;6.88;;;2.88;;
30571;SDS011;17348;50.948;10.696;2023-08-12T10:16:30;8.43;;;2.50;;
30571;SDS011;17348;50.948;10.696;2023-08-12T10:19:34;4.63;;;2.45;;
30571;SDS011;17348;50.948;10.696;2023-08-12T10:22:39;4.20;;;2.53;;
30571;SDS011;17348;50.948;10.696;2023-08-12T10:25:43;5.82;;;2.45;;
30571;SDS011;17348;50.948;10.696;2023-08-12T10:28:46;4.10;;;2.60;;
30571;SDS011;17348;50.948;10.696;2023-08-12T10:31:50;5.25;;;3.13;;
30571;SDS011;17348;50.948;10.696;2023-08-12T10:34:56;3.83;;;2.90;;
30571;SDS011;17348;50.948;10.696;2023-08-12T10:38:00;7.38;;;2.42;;
30571;SDS011;17348;50.948;10.696;2023-08-12T10:41:15;4.63;;;2.33;;
30571;SDS011;17348;50.948;10.696;2023-08-12T10:44:19;7.95;;;2.65;;
30571;SDS011;17348;50.948;10.696;2023-08-12T10:47:24;3.70;;;2.60;;
30571;SDS011;17348;50.948;10.696;2023-08-12T10:50:26;5.65;;;2.60;;
30571;SDS011;17348;50.948;10.696;2023-08-12T10:53:32;3.83;;;2.42;;
30571;SDS011;17348;50.948;10.696;2023-08-12T11:00:14;5.10;;;2.60;;
30571;SDS011;17348;50.948;10.696;2023-08-12T11:03:18;7.88;;;2.42;;
30571;SDS011;17348;50.948;10.696;2023-08-12T11:06:21;4.78;;;2.08;;
30571;SDS011;17348;50.948;10.696;2023-08-12T11:09:24;3.42;;;2.30;;
30571;SDS011;17348;50.948;10.696;2023-08-12T11:12:30;3.58;;;2.35;;
30571;SDS011;17348;50.948;10.696;2023-08-12T11:15:34;6.25;;;2.70;;
30571;SDS011;17348;50.948;10.696;2023-08-12T11:18:37;3.97;;;2.55;;
30571;SDS011;17348;50.948;10.696;2023-08-12T11:21:41;9.07;;;3.28;;
30571;SDS011;17348;50.948;10.696;2023-08-12T11:24:45;7.57;;;2.35;;
30571;SDS011;17348;50.948;10.696;2023-08-12T11:27:49;5.45;;;2.13;;
30571;SDS011;17348;50.948;10.696;2023-08-12T11:30:52;3.65;;;2.50;;
30571;SDS011;17348;50.948;10.696;2023-08-12T11:33:54;3.00;;;1.85;;
30571;SDS011;17348;50.948;10.696;2023-08-12T11:36:57;3.08;;;2.25;;
30571;SDS011;17348;50.948;10.696;2023-08-12T11:40:02;5.15;;;2.38;;
30571;SDS011;17348;50.948;10.696;2023-08-12T11:43:06;2.97;;;2.10;;
30571;SDS011;17348;50.948;10.696;2023-08-12T11:46:08;4.07;;;2.35;;
30571;SDS011;17348;50.948;10.696;2023-08-12T11:49:10;8.85;;;2.70;;
30571;SDS011;17348;50.948;10.696;2023-08-12T11:52:13;5.88;;;2.03;;
30571;SDS011;17348;50.948;10.696;2023-08-12T11:55:17;3.80;;;2.05;;
30571;SDS011;17348;50.948;10.696;2023-08-12T11:58:19;8.15;;;2.00;;
30571;SDS011;17348;50.948;10.696;2023-08-12T12:01:23;4.28;;;2.40;;
30571;SDS011;17348;50.948;10.696;2023-08-12T12:04:26;2.83;;;2.05;;
30571;SDS011;17348;50.948;10.696;2023-08-12T12:07:28;9.23;;;2.00;;
30571;SDS011;17348;50.948;10.696;2023-08-12T12:10:34;5.43;;;2.30;;
30571;SDS011;17348;50.948;10.696;2023-08-12T12:13:36;4.03;;;2.20;;
30571;SDS011;17348;50.948;10.696;2023-08-12T12:16:39;3.25;;;1.75;;
30571;SDS011;17348;50.948;10.696;2023-08-12T12:19:42;5.25;;;2.08;;
30571;SDS011;17348;50.948;10.696;2023-08-12T12:22:45;6.88;;;2.03;;
30571;SDS011;17348;50.948;10.696;2023-08-12T12:25:56;7.32;;;2.10;;
30571;SDS011;17348;50.948;10.696;2023-08-12T12:28:59;6.13;;;2.00;;
30571;SDS011;17348;50.948;10.696;2023-08-12T12:32:01;7.57;;;2.10;;
30571;SDS011;17348;50.948;10.696;2023-08-12T12:35:04;2.85;;;2.13;;
30571;SDS011;17348;50.948;10.696;2023-08-12T12:38:08;3.13;;;2.05;;
30571;SDS011;17348;50.948;10.696;2023-08-12T12:41:11;3.42;;;2.40;;
30571;SDS011;17348;50.948;10.696;2023-08-12T12:44:15;4.47;;;2.13;;
30571;SDS011;17348;50.948;10.696;2023-08-12T12:47:17;5.18;;;1.90;;
30571;SDS011;17348;50.948;10.696;2023-08-12T12:50:21;9.00;;;2.33;;
30571;SDS011;17348;50.948;10.696;2023-08-12T12:53:23;3.30;;;2.20;;
30571;SDS011;17348;50.948;10.696;2023-08-12T12:56:27;8.27;;;2.45;;
30571;SDS011;17348;50.948;10.696;2023-08-12T12:59:30;3.92;;;2.30;;
30571;SDS011;17348;50.948;10.696;2023-08-12T13:02:32;10.85;;;2.22;;
30571;SDS011;17348;50.948;10.696;2023-08-12T13:05:34;4.10;;;2.25;;
30571;SDS011;17348;50.948;10.696;2023-08-12T13:08:37;3.22;;;2.35;;
30571;SDS011;17348;50.948;10.696;2023-08-12T13:11:40;5.20;;;2.50;;
30571;SDS011;17348;50.948;10.696;2023-08-12T13:14:43;6.68;;;2.22;;
30571;SDS011;17348;50.948;10.696;2023-08-12T13:17:45;7.25;;;2.58;;
30571;SDS011;17348;50.948;10.696;2023-08-12T13:20:47;5.35;;;2.47;;
30571;SDS011;17348;50.948;10.696;2023-08-12T13:23:50;8.48;;;2.83;;
30571;SDS011;17348;50.948;10.696;2023-08-12T13:26:53;4.03;;;2.70;;
30571;SDS011;17348;50.948;10.696;2023-08-12T13:29:56;7.32;;;2.50;;
30571;SDS011;17348;50.948;10.696;2023-08-12T13:32:58;12.95;;;3.35;;
30571;SDS011;17348;50.948;10.696;2023-08-12T13:36:00;6.85;;;3.13;;
30571;SDS011;17348;50.948;10.696;2023-08-12T13:39:03;6.50;;;2.95;;
30571;SDS011;17348;50.948;10.696;2023-08-12T13:42:07;6.38;;;3.03;;
30571;SDS011;17348;50.948;10.696;2023-08-12T13:45:10;8.27;;;3.38;;
30571;SDS011;17348;50.948;10.696;2023-08-12T13:48:13;7.72;;;3.83;;
30571;SDS011;17348;50.948;10.696;2023-08-12T13:51:16;9.32;;;4.03;;
30571;SDS011;17348;50.948;10.696;2023-08-12T13:54:18;11.05;;;3.90;;
30571;SDS011;17348;50.948;10.696;2023-08-12T13:57:22;8.57;;;3.75;;
30571;SDS011;17348;50.948;10.696;2023-08-12T14:00:24;7.07;;;3.60;;
30571;SDS011;17348;50.948;10.696;2023-08-12T14:03:27;6.00;;;3.75;;
30571;SDS011;17348;50.948;10.696;2023-08-12T14:06:29;4.78;;;3.40;;
30571;SDS011;17348;50.948;10.696;2023-08-12T14:09:32;10.88;;;3.88;;
30571;SDS011;17348;50.948;10.696;2023-08-12T14:12:36;8.73;;;3.50;;
30571;SDS011;17348;50.948;10.696;2023-08-12T14:15:39;8.50;;;3.92;;
30571;SDS011;17348;50.948;10.696;2023-08-12T14:18:42;9.57;;;4.15;;
30571;SDS011;17348;50.948;10.696;2023-08-12T14:21:44;8.43;;;4.38;;
30571;SDS011;17348;50.948;10.696;2023-08-12T14:24:47;6.38;;;4.38;;
30571;SDS011;17348;50.948;10.696;2023-08-12T14:27:51;10.27;;;4.57;;
30571;SDS011;17348;50.948;10.696;2023-08-12T14:30:53;7.43;;;4.10;;
30571;SDS011;17348;50.948;10.696;2023-08-12T14:33:55;7.38;;;4.05;;
30571;SDS011;17348;50.948;10.696;2023-08-12T14:36:58;11.30;;;4.95;;
30571;SDS011;17348;50.948;10.696;2023-08-12T14:40:01;7.95;;;4.47;;
30571;SDS011;17348;50.948;10.696;2023-08-12T14:43:05;8.63;;;4.35;;
30571;SDS011;17348;50.948;10.696;2023-08-12T14:46:08;7.75;;;4.32;;
30571;SDS011;17348;50.948;10.696;2023-08-12T14:49:10;7.43;;;3.92;;
30571;SDS011;17348;50.948;10.696;2023-08-12T14:52:16;9.68;;;4.15;;
30571;SDS011;17348;50.948;10.696;2023-08-12T14:55:19;6.38;;;3.88;;
30571;SDS011;17348;50.948;10.696;2023-08-12T14:58:23;7.10;;;3.85;;
30571;SDS011;17348;50.948;10.696;2023-08-12T15:01:25;8.93;;;4.07;;
30571;SDS011;17348;50.948;10.696;2023-08-12T15:04:28;6.68;;;3.42;;
30571;SDS011;17348;50.948;10.696;2023-08-12T15:07:31;7.85;;;3.78;;
30571;SDS011;17348;50.948;10.696;2023-08-12T15:10:33;5.60;;;3.78;;
30571;SDS011;17348;50.948;10.696;2023-08-12T15:13:37;4.88;;;2.70;;
30571;SDS011;17348;50.948;10.696;2023-08-12T15:16:39;2.58;;;2.25;;
30571;SDS011;17348;50.948;10.696;2023-08-12T15:19:43;3.28;;;2.10;;
30571;SDS011;17348;50.948;10.696;2023-08-12T15:22:46;5.32;;;2.65;;
30571;SDS011;17348;50.948;10.696;2023-08-12T15:25:48;4.47;;;2.42;;
30571;SDS011;17348;50.948;10.696;2023-08-12T15:28:51;4.25;;;2.33;;
30571;SDS011;17348;50.948;10.696;2023-08-12T15:31:54;4.60;;;2.38;;
30571;SDS011;17348;50.948;10.696;2023-08-12T15:34:57;5.00;;;2.10;;
30571;SDS011;17348;50.948;10.696;2023-08-12T15:38:00;4.63;;;2.10;;
30571;SDS011;17348;50.948;10.696;2023-08-12T15:41:04;2.55;;;1.70;;
30571;SDS011;17348;50.948;10.696;2023-08-12T15:44:15;2.33;;;1.63;;
30571;SDS011;17348;50.948;10.696;2023-08-12T15:47:20;3.20;;;1.80;;
30571;SDS011;17348;50.948;10.696;2023-08-12T15:50:22;3.30;;;1.83;;
30571;SDS011;17348;50.948;10.696;2023-08-12T15:53:24;3.30;;;1.63;;
30571;SDS011;17348;50.948;10.696;2023-08-12T15:56:27;3.63;;;1.50;;
30571;SDS011;17348;50.948;10.696;2023-08-12T15:59:30;1.60;;;1.20;;
30571;SDS011;17348;50.948;10.696;2023-08-12T16:02:33;6.68;;;2.03;;
30571;SDS011;17348;50.948;10.696;2023-08-12T16:05:35;4.18;;;2.53;;
30571;SDS011;17348;50.948;10.696;2023-08-12T16:08:38;6.20;;;2.30;;
30571;SDS011;17348;50.948;10.696;2023-08-12T16:11:40;3.42;;;1.95;;
30571;SDS011;17348;50.948;10.696;2023-08-12T16:14:44;4.07;;;1.80;;
30571;SDS011;17348;50.948;10.696;2023-08-12T16:17:46;4.22;;;2.30;;
30571;SDS011;17348;50.948;10.696;2023-08-12T16:20:49;3.42;;;1.73;;
30571;SDS011;17348;50.948;10.696;2023-08-12T16:23:51;13.00;;;2.20;;
30571;SDS011;17348;50.948;10.696;2023-08-12T16:26:55;8.32;;;2.70;;
30571;SDS011;17348;50.948;10.696;2023-08-12T16:30:00;5.05;;;2.75;;
30571;SDS011;17348;50.948;10.696;2023-08-12T16:33:03;2.30;;;1.80;;
30571;SDS011;17348;50.948;10.696;2023-08-12T16:36:06;6.25;;;1.90;;
30571;SDS011;17348;50.948;10.696;2023-08-12T16:39:08;4.95;;;2.40;;
30571;SDS011;17348;50.948;10.696;2023-08-12T16:42:10;4.15;;;2.15;;
30571;SDS011;17348;50.948;10.696;2023-08-12T16:45:14;2.65;;;1.77;;
30571;SDS011;17348;50.948;10.696;2023-08-12T16:48:17;4.65;;;1.83;;
30571;SDS011;17348;50.948;10.696;2023-08-12T16:51:19;4.65;;;1.60;;
30571;SDS011;17348;50.948;10.696;2023-08-12T16:54:21;4.85;;;2.10;;
30571;SDS011;17348;50.948;10.696;2023-08-12T16:57:24;4.95;;;1.52;;
30571;SDS011;17348;50.948;10.696;2023-08-12T17:00:27;4.60;;;1.50;;
30571;SDS011;17348;50.948;10.696;2023-08-12T17:03:30;2.45;;;1.27;;
30571;SDS011;17348;50.948;10.696;2023-08-12T17:06:32;4.28;;;1.70;;
30571;SDS011;17348;50.948;10.696;2023-08-12T17:09:34;2.17;;;1.80;;
30571;SDS011;17348;50.948;10.696;2023-08-12T17:12:37;3.85;;;1.80;;
30571;SDS011;17348;50.948;10.696;2023-08-12T17:15:41;2.53;;;1.55;;
30571;SDS011;17348;50.948;10.696;2023-08-12T17:18:43;3.35;;;2.30;;
30571;SDS011;17348;50.948;10.696;2023-08-12T17:21:45;3.83;;;2.28;;
30571;SDS011;17348;50.948;10.696;2023-08-12T17:24:48;3.05;;;1.73;;
30571;SDS011;17348;50.948;10.696;2023-08-12T17:27:50;4.07;;;1.48;;
30571;SDS011;17348;50.948;10.696;2023-08-12T17:30:54;2.17;;;1.42;;
30571;SDS011;17348;50.948;10.696;2023-08-12T17:33:57;4.55;;;1.42;;
30571;SDS011;17348;50.948;10.696;2023-08-12T17:36:59;2.03;;;1.48;;
30571;SDS011;17348;50.948;10.696;2023-08-12T17:40:01;3.05;;;1.33;;
30571;SDS011;17348;50.948;10.696;2023-08-12T17:43:05;1.80;;;1.40;;
30571;SDS011;17348;50.948;10.696;2023-08-12T17:46:09;2.97;;;1.73;;
30571;SDS011;17348;50.948;10.696;2023-08-12T17:49:13;4.80;;;1.60;;
30571;SDS011;17348;50.948;10.696;2023-08-12T17:52:15;5.47;;;1.75;;
30571;SDS011;17348;50.948;10.696;2023-08-12T17:55:17;3.05;;;1.65;;
30571;SDS011;17348;50.948;10.696;2023-08-12T17:58:20;4.72;;;1.83;;
30571;SDS011;17348;50.948;10.696;2023-08-12T18:01:24;5.65;;;1.90;;
30571;SDS011;17348;50.948;10.696;2023-08-12T18:04:26;3.15;;;1.52;;
30571;SDS011;17348;50.948;10.696;2023-08-12T18:07:28;3.30;;;1.70;;
30571;SDS011;17348;50.948;10.696;2023-08-12T18:10:40;3.38;;;1.40;;
30571;SDS011;17348;50.948;10.696;2023-08-12T18:13:42;2.40;;;1.65;;
30571;SDS011;17348;50.948;10.696;2023-08-12T18:16:46;2.58;;;1.40;;
30571;SDS011;17348;50.948;10.696;2023-08-12T18:19:48;4.75;;;1.40;;
30571;SDS011;17348;50.948;10.696;2023-08-12T18:22:50;5.10;;;1.52;;
30571;SDS011;17348;50.948;10.696;2023-08-12T18:25:53;8.73;;;3.72;;
30571;SDS011;17348;50.948;10.696;2023-08-12T18:28:55;2.88;;;2.08;;
30571;SDS011;17348;50.948;10.696;2023-08-12T18:31:59;3.60;;;1.48;;
30571;SDS011;17348;50.948;10.696;2023-08-12T18:35:04;4.70;;;1.60;;
30571;SDS011;17348;50.948;10.696;2023-08-12T18:38:07;5.43;;;1.75;;
30571;SDS011;17348;50.948;10.696;2023-08-12T18:41:09;5.00;;;1.83;;
30571;SDS011;17348;50.948;10.696;2023-08-12T18:44:12;4.35;;;2.17;;